sensor_id;sensor_type;location;lat;lon;timestamp;pressure;altitude;pressure_sealevel;temperature;humidity
53526;BME280;40551;50.478;19.378;2023-05-24T00:00:26;97568.31;;;16.92;78.94
53526;BME280;40551;50.478;19.378;2023-05-24T00:03:18;97569.17;;;16.92;78.91
53526;BME280;40551;50.478;19.378;2023-05-24T00:05:52;97567.04;;;16.91;79.04
53526;BME280;40551;50.478;19.378;2023-05-24T00:08:24;97571.79;;;16.91;79.11
53526;BME280;40551;50.478;19.378;2023-05-24T00:10:56;97573.14;;;16.90;79.06
53526;BME280;40551;50.478;19.378;2023-05-24T00:13:28;97566.68;;;16.88;79.18
53526;BME280;40551;50.478;19.378;2023-05-24T00:16:00;97565.02;;;16.87;79.36
53526;BME280;40551;50.478;19.378;2023-05-24T00:18:31;97563.27;;;16.86;79.17
53526;BME280;40551;50.478;19.378;2023-05-24T00:21:03;97560.66;;;16.84;79.14
53526;BME280;40551;50.478;19.378;2023-05-24T00:23:35;97563.83;;;16.82;79.21
53526;BME280;40551;50.478;19.378;2023-05-24T00:26:08;97563.28;;;16.81;79.26
53526;BME280;40551;50.478;19.378;2023-05-24T00:28:42;97562.21;;;16.80;79.33
53526;BME280;40551;50.478;19.378;2023-05-24T00:31:14;97559.58;;;16.77;79.48
53526;BME280;40551;50.478;19.378;2023-05-24T00:33:46;97560.48;;;16.73;79.49
53526;BME280;40551;50.478;19.378;2023-05-24T00:36:18;97558.67;;;16.68;79.25
53526;BME280;40551;50.478;19.378;2023-05-24T00:38:50;97564.02;;;16.64;79.44
53526;BME280;40551;50.478;19.378;2023-05-24T00:41:23;97562.98;;;16.61;79.49
53526;BME280;40551;50.478;19.378;2023-05-24T00:43:55;97564.42;;;16.58;79.45
53526;BME280;40551;50.478;19.378;2023-05-24T00:46:28;97564.52;;;16.54;79.59
53526;BME280;40551;50.478;19.378;2023-05-24T00:49:00;97564.20;;;16.51;79.72
53526;BME280;40551;50.478;19.378;2023-05-24T00:51:33;97566.17;;;16.47;79.95
53526;BME280;40551;50.478;19.378;2023-05-24T00:54:06;97566.23;;;16.42;79.91
53526;BME280;40551;50.478;19.378;2023-05-24T00:56:39;97565.51;;;16.38;79.90
53526;BME280;40551;50.478;19.378;2023-05-24T00:59:11;97565.64;;;16.34;79.94
53526;BME280;40551;50.478;19.378;2023-05-24T01:01:43;97567.63;;;16.29;79.99
53526;BME280;40551;50.478;19.378;2023-05-24T01:04:17;97568.84;;;16.26;80.21
53526;BME280;40551;50.478;19.378;2023-05-24T01:07:08;97570.39;;;16.22;80.32
53526;BME280;40551;50.478;19.378;2023-05-24T01:09:52;97573.96;;;16.18;80.55
53526;BME280;40551;50.478;19.378;2023-05-24T01:12:43;97573.91;;;16.12;80.56
53526;BME280;40551;50.478;19.378;2023-05-24T01:15:24;97576.90;;;16.08;80.73
53526;BME280;40551;50.478;19.378;2023-05-24T01:18:04;97581.92;;;16.04;81.04
53526;BME280;40551;50.478;19.378;2023-05-24T01:20:38;97586.67;;;15.98;81.09
53526;BME280;40551;50.478;19.378;2023-05-24T01:23:31;97587.54;;;15.94;81.06
53526;BME280;40551;50.478;19.378;2023-05-24T01:26:23;97592.30;;;15.89;81.39
53526;BME280;40551;50.478;19.378;2023-05-24T01:29:00;97594.81;;;15.86;81.30
53526;BME280;40551;50.478;19.378;2023-05-24T01:31:33;97595.88;;;15.82;81.40
53526;BME280;40551;50.478;19.378;2023-05-24T01:34:07;97594.16;;;15.81;81.61
53526;BME280;40551;50.478;19.378;2023-05-24T01:36:39;97592.89;;;15.80;81.51
53526;BME280;40551;50.478;19.378;2023-05-24T01:39:11;97592.02;;;15.79;81.73
53526;BME280;40551;50.478;19.378;2023-05-24T01:41:49;97591.36;;;15.78;81.61
53526;BME280;40551;50.478;19.378;2023-05-24T01:44:28;97588.75;;;15.76;81.62
53526;BME280;40551;50.478;19.378;2023-05-24T01:47:10;97589.84;;;15.75;81.73
53526;BME280;40551;50.478;19.378;2023-05-24T01:49:49;97589.80;;;15.73;81.54
53526;BME280;40551;50.478;19.378;2023-05-24T01:52:22;97590.74;;;15.69;81.65
53526;BME280;40551;50.478;19.378;2023-05-24T01:54:56;97590.88;;;15.66;81.82
53526;BME280;40551;50.478;19.378;2023-05-24T01:57:29;97594.93;;;15.63;81.68
53526;BME280;40551;50.478;19.378;2023-05-24T02:00:02;97592.06;;;15.60;81.65
53526;BME280;40551;50.478;19.378;2023-05-24T02:02:42;97593.46;;;15.58;81.78
53526;BME280;40551;50.478;19.378;2023-05-24T02:05:15;97591.36;;;15.56;81.64
53526;BME280;40551;50.478;19.378;2023-05-24T02:07:47;97597.52;;;15.54;81.56
53526;BME280;40551;50.478;19.378;2023-05-24T02:10:19;97601.09;;;15.51;81.58
53526;BME280;40551;50.478;19.378;2023-05-24T02:12:51;97600.98;;;15.49;81.68
53526;BME280;40551;50.478;19.378;2023-05-24T02:15:23;97604.08;;;15.47;81.71
53526;BME280;40551;50.478;19.378;2023-05-24T02:17:55;97606.37;;;15.45;81.58
53526;BME280;40551;50.478;19.378;2023-05-24T02:20:28;97608.58;;;15.44;81.82
53526;BME280;40551;50.478;19.378;2023-05-24T02:23:02;97603.38;;;15.42;81.86
53526;BME280;40551;50.478;19.378;2023-05-24T02:25:34;97606.63;;;15.40;81.74
53526;BME280;40551;50.478;19.378;2023-05-24T02:28:06;97605.43;;;15.38;81.77
53526;BME280;40551;50.478;19.378;2023-05-24T02:30:38;97611.08;;;15.36;81.74
53526;BME280;40551;50.478;19.378;2023-05-24T02:33:14;97612.98;;;15.34;81.82
53526;BME280;40551;50.478;19.378;2023-05-24T02:35:46;97617.35;;;15.31;81.85
53526;BME280;40551;50.478;19.378;2023-05-24T02:38:18;97622.44;;;15.29;81.94
53526;BME280;40551;50.478;19.378;2023-05-24T02:40:50;97623.70;;;15.28;81.90
53526;BME280;40551;50.478;19.378;2023-05-24T02:43:21;97620.96;;;15.28;82.03
53526;BME280;40551;50.478;19.378;2023-05-24T02:45:53;97622.80;;;15.27;82.14
53526;BME280;40551;50.478;19.378;2023-05-24T02:48:26;97625.07;;;15.26;82.20
53526;BME280;40551;50.478;19.378;2023-05-24T02:50:58;97629.52;;;15.25;82.24
53526;BME280;40551;50.478;19.378;2023-05-24T02:53:32;97630.33;;;15.24;82.35
53526;BME280;40551;50.478;19.378;2023-05-24T02:56:05;97629.69;;;15.21;82.33
53526;BME280;40551;50.478;19.378;2023-05-24T02:58:39;97630.50;;;15.20;82.59
53526;BME280;40551;50.478;19.378;2023-05-24T03:01:11;97633.62;;;15.18;82.61
53526;BME280;40551;50.478;19.378;2023-05-24T03:03:45;97635.55;;;15.18;82.82
53526;BME280;40551;50.478;19.378;2023-05-24T03:06:17;97638.24;;;15.16;82.76
53526;BME280;40551;50.478;19.378;2023-05-24T03:08:49;97639.20;;;15.16;82.86
53526;BME280;40551;50.478;19.378;2023-05-24T03:11:22;97643.95;;;15.17;83.11
53526;BME280;40551;50.478;19.378;2023-05-24T03:13:54;97646.63;;;15.18;83.09
53526;BME280;40551;50.478;19.378;2023-05-24T03:16:26;97642.60;;;15.18;82.88
53526;BME280;40551;50.478;19.378;2023-05-24T03:18:57;97643.62;;;15.16;82.93
53526;BME280;40551;50.478;19.378;2023-05-24T03:25:24;97646.30;;;15.06;83.04
53526;BME280;40551;50.478;19.378;2023-05-24T03:28:37;97646.70;;;15.06;83.25
53526;BME280;40551;50.478;19.378;2023-05-24T03:31:52;97645.36;;;15.05;83.47
53526;BME280;40551;50.478;19.378;2023-05-24T03:34:25;97643.02;;;15.07;83.27
53526;BME280;40551;50.478;19.378;2023-05-24T03:36:57;97647.61;;;15.09;83.43
53526;BME280;40551;50.478;19.378;2023-05-24T03:39:29;97649.86;;;15.09;83.41
53526;BME280;40551;50.478;19.378;2023-05-24T03:42:17;97649.11;;;15.09;83.54
53526;BME280;40551;50.478;19.378;2023-05-24T03:44:49;97648.42;;;15.09;83.49
53526;BME280;40551;50.478;19.378;2023-05-24T03:47:24;97652.09;;;15.09;83.73
53526;BME280;40551;50.478;19.378;2023-05-24T03:49:56;97649.58;;;15.07;83.66
53526;BME280;40551;50.478;19.378;2023-05-24T03:52:28;97649.11;;;15.07;83.66
53526;BME280;40551;50.478;19.378;2023-05-24T03:55:00;97648.42;;;15.09;83.74
53526;BME280;40551;50.478;19.378;2023-05-24T03:57:32;97651.30;;;15.12;83.81
53526;BME280;40551;50.478;19.378;2023-05-24T04:00:05;97655.63;;;15.14;83.81
53526;BME280;40551;50.478;19.378;2023-05-24T04:02:43;97657.11;;;15.16;83.87
53526;BME280;40551;50.478;19.378;2023-05-24T04:05:19;97660.91;;;15.18;83.97
53526;BME280;40551;50.478;19.378;2023-05-24T04:07:51;97661.29;;;15.21;83.81
53526;BME280;40551;50.478;19.378;2023-05-24T04:10:23;97664.79;;;15.24;83.80
53526;BME280;40551;50.478;19.378;2023-05-24T04:12:54;97664.71;;;15.26;83.82
53526;BME280;40551;50.478;19.378;2023-05-24T04:15:26;97665.59;;;15.28;83.88
53526;BME280;40551;50.478;19.378;2023-05-24T04:17:58;97669.23;;;15.28;83.78
53526;BME280;40551;50.478;19.378;2023-05-24T04:20:32;97668.17;;;15.29;83.68
53526;BME280;40551;50.478;19.378;2023-05-24T04:23:04;97670.35;;;15.32;83.72
53526;BME280;40551;50.478;19.378;2023-05-24T04:25:36;97675.23;;;15.34;83.78
53526;BME280;40551;50.478;19.378;2023-05-24T04:28:10;97675.13;;;15.35;83.72
53526;BME280;40551;50.478;19.378;2023-05-24T04:30:42;97677.98;;;15.36;83.64
53526;BME280;40551;50.478;19.378;2023-05-24T04:33:15;97681.27;;;15.38;83.70
53526;BME280;40551;50.478;19.378;2023-05-24T04:35:47;97686.45;;;15.40;83.72
53526;BME280;40551;50.478;19.378;2023-05-24T04:38:25;97687.34;;;15.40;83.50
53526;BME280;40551;50.478;19.378;2023-05-24T04:41:38;97690.85;;;15.40;83.72
53526;BME280;40551;50.478;19.378;2023-05-24T04:44:35;97695.85;;;15.40;83.83
53526;BME280;40551;50.478;19.378;2023-05-24T04:51:18;97701.00;;;15.41;83.53
53526;BME280;40551;50.478;19.378;2023-05-24T04:54:08;97701.95;;;15.44;83.67
53526;BME280;40551;50.478;19.378;2023-05-24T04:56:40;97703.29;;;15.46;83.52
53526;BME280;40551;50.478;19.378;2023-05-24T04:59:12;97704.38;;;15.48;83.46
53526;BME280;40551;50.478;19.378;2023-05-24T05:01:43;97708.05;;;15.50;83.40
53526;BME280;40551;50.478;19.378;2023-05-24T05:04:16;97708.30;;;15.52;83.47
53526;BME280;40551;50.478;19.378;2023-05-24T05:06:49;97710.21;;;15.54;83.42
53526;BME280;40551;50.478;19.378;2023-05-24T05:09:20;97714.62;;;15.56;83.29
53526;BME280;40551;50.478;19.378;2023-05-24T05:11:54;97714.77;;;15.56;83.16
53526;BME280;40551;50.478;19.378;2023-05-24T05:14:26;97720.09;;;15.57;83.23
53526;BME280;40551;50.478;19.378;2023-05-24T05:16:58;97725.38;;;15.60;83.20
53526;BME280;40551;50.478;19.378;2023-05-24T05:19:30;97733.64;;;15.61;83.07
53526;BME280;40551;50.478;19.378;2023-05-24T05:22:01;97734.80;;;15.63;82.94
53526;BME280;40551;50.478;19.378;2023-05-24T05:24:33;97739.35;;;15.66;83.02
53526;BME280;40551;50.478;19.378;2023-05-24T05:27:06;97743.16;;;15.68;82.96
53526;BME280;40551;50.478;19.378;2023-05-24T05:29:38;97743.08;;;15.72;83.06
53526;BME280;40551;50.478;19.378;2023-05-24T05:32:11;97750.63;;;15.74;82.96
53526;BME280;40551;50.478;19.378;2023-05-24T05:34:43;97747.81;;;15.75;82.77
53526;BME280;40551;50.478;19.378;2023-05-24T05:37:15;97752.33;;;15.75;82.59
53526;BME280;40551;50.478;19.378;2023-05-24T05:39:47;97755.77;;;15.77;82.67
53526;BME280;40551;50.478;19.378;2023-05-24T05:42:20;97754.88;;;15.77;82.38
53526;BME280;40551;50.478;19.378;2023-05-24T05:44:51;97752.95;;;15.76;82.19
53526;BME280;40551;50.478;19.378;2023-05-24T05:47:23;97755.09;;;15.74;82.28
53526;BME280;40551;50.478;19.378;2023-05-24T05:49:55;97756.52;;;15.73;82.06
53526;BME280;40551;50.478;19.378;2023-05-24T05:52:27;97761.54;;;15.75;82.43
53526;BME280;40551;50.478;19.378;2023-05-24T05:55:01;97765.91;;;15.78;81.86
53526;BME280;40551;50.478;19.378;2023-05-24T05:57:33;97765.87;;;15.78;82.03
53526;BME280;40551;50.478;19.378;2023-05-24T06:00:06;97772.58;;;15.79;81.82
53526;BME280;40551;50.478;19.378;2023-05-24T06:02:41;97778.60;;;15.81;82.20
53526;BME280;40551;50.478;19.378;2023-05-24T06:05:13;97780.94;;;15.82;81.81
53526;BME280;40551;50.478;19.378;2023-05-24T06:07:45;97790.02;;;15.79;81.58
53526;BME280;40551;50.478;19.378;2023-05-24T06:10:18;97793.95;;;15.74;81.43
53526;BME280;40551;50.478;19.378;2023-05-24T06:12:50;97797.89;;;15.66;81.37
53526;BME280;40551;50.478;19.378;2023-05-24T06:15:22;97800.19;;;15.58;81.19
53526;BME280;40551;50.478;19.378;2023-05-24T06:17:55;97802.06;;;15.54;81.41
53526;BME280;40551;50.478;19.378;2023-05-24T06:20:28;97806.90;;;15.47;81.13
53526;BME280;40551;50.478;19.378;2023-05-24T06:23:00;97810.88;;;15.42;81.54
53526;BME280;40551;50.478;19.378;2023-05-24T06:25:32;97818.14;;;15.38;81.51
53526;BME280;40551;50.478;19.378;2023-05-24T06:28:04;97822.48;;;15.31;81.55
53526;BME280;40551;50.478;19.378;2023-05-24T06:30:36;97832.71;;;15.22;81.47
53526;BME280;40551;50.478;19.378;2023-05-24T06:33:09;97835.83;;;15.16;81.59
53526;BME280;40551;50.478;19.378;2023-05-24T06:35:41;97840.69;;;15.06;81.59
53526;BME280;40551;50.478;19.378;2023-05-24T06:38:13;97845.89;;;14.98;81.88
53526;BME280;40551;50.478;19.378;2023-05-24T06:40:45;97851.36;;;14.92;81.92
53526;BME280;40551;50.478;19.378;2023-05-24T06:43:17;97858.42;;;14.86;82.25
53526;BME280;40551;50.478;19.378;2023-05-24T06:45:50;97860.98;;;14.81;82.29
53526;BME280;40551;50.478;19.378;2023-05-24T06:48:22;97864.08;;;14.74;82.11
53526;BME280;40551;50.478;19.378;2023-05-24T06:50:54;97863.86;;;14.66;82.08
53526;BME280;40551;50.478;19.378;2023-05-24T06:53:27;97872.88;;;14.56;82.42
53526;BME280;40551;50.478;19.378;2023-05-24T06:55:59;97874.16;;;14.50;82.53
53526;BME280;40551;50.478;19.378;2023-05-24T06:58:52;97875.27;;;14.47;82.53
53526;BME280;40551;50.478;19.378;2023-05-24T07:01:53;97878.79;;;14.41;82.68
53526;BME280;40551;50.478;19.378;2023-05-24T07:04:31;97878.23;;;14.38;82.88
53526;BME280;40551;50.478;19.378;2023-05-24T07:07:03;97879.10;;;14.31;82.68
53526;BME280;40551;50.478;19.378;2023-05-24T07:09:35;97882.39;;;14.26;82.77
53526;BME280;40551;50.478;19.378;2023-05-24T07:12:10;97888.48;;;14.23;82.90
53526;BME280;40551;50.478;19.378;2023-05-24T07:14:46;97887.24;;;14.22;83.13
53526;BME280;40551;50.478;19.378;2023-05-24T07:17:18;97893.33;;;14.20;83.05
53526;BME280;40551;50.478;19.378;2023-05-24T07:19:53;97896.13;;;14.18;82.86
53526;BME280;40551;50.478;19.378;2023-05-24T07:22:25;97899.13;;;14.15;82.98
53526;BME280;40551;50.478;19.378;2023-05-24T07:24:58;97903.09;;;14.10;82.95
53526;BME280;40551;50.478;19.378;2023-05-24T07:27:34;97908.05;;;14.06;83.05
53526;BME280;40551;50.478;19.378;2023-05-24T07:30:08;97912.77;;;14.02;83.05
53526;BME280;40551;50.478;19.378;2023-05-24T07:33:00;97915.36;;;13.99;83.11
53526;BME280;40551;50.478;19.378;2023-05-24T07:35:32;97917.95;;;13.99;83.18
53526;BME280;40551;50.478;19.378;2023-05-24T07:38:04;97919.75;;;13.99;83.20
53526;BME280;40551;50.478;19.378;2023-05-24T07:40:36;97919.25;;;13.97;83.37
53526;BME280;40551;50.478;19.378;2023-05-24T07:43:08;97917.73;;;14.00;83.52
53526;BME280;40551;50.478;19.378;2023-05-24T07:45:41;97918.93;;;14.05;83.45
53526;BME280;40551;50.478;19.378;2023-05-24T07:48:13;97921.02;;;14.10;83.52
53526;BME280;40551;50.478;19.378;2023-05-24T07:50:45;97923.45;;;14.14;83.28
53526;BME280;40551;50.478;19.378;2023-05-24T07:53:18;97923.55;;;14.13;82.95
53526;BME280;40551;50.478;19.378;2023-05-24T07:55:50;97929.35;;;14.09;82.78
53526;BME280;40551;50.478;19.378;2023-05-24T07:58:21;97933.42;;;14.07;82.86
53526;BME280;40551;50.478;19.378;2023-05-24T08:00:55;97940.22;;;14.05;82.98
53526;BME280;40551;50.478;19.378;2023-05-24T08:03:26;97945.19;;;14.04;83.11
53526;BME280;40551;50.478;19.378;2023-05-24T08:05:59;97949.86;;;14.05;83.02
53526;BME280;40551;50.478;19.378;2023-05-24T08:08:31;97954.55;;;14.05;83.08
53526;BME280;40551;50.478;19.378;2023-05-24T08:11:04;97953.95;;;14.04;82.65
53526;BME280;40551;50.478;19.378;2023-05-24T08:13:35;97954.80;;;14.04;82.89
53526;BME280;40551;50.478;19.378;2023-05-24T08:16:07;97954.61;;;14.04;82.63
53526;BME280;40551;50.478;19.378;2023-05-24T08:18:39;97962.79;;;14.04;82.44
53526;BME280;40551;50.478;19.378;2023-05-24T08:21:11;97968.04;;;14.04;82.42
53526;BME280;40551;50.478;19.378;2023-05-24T08:23:43;97973.15;;;14.05;82.19
53526;BME280;40551;50.478;19.378;2023-05-24T08:26:14;97977.69;;;14.04;82.09
53526;BME280;40551;50.478;19.378;2023-05-24T08:28:48;97975.95;;;14.04;82.05
53526;BME280;40551;50.478;19.378;2023-05-24T08:31:20;97978.21;;;14.05;82.13
53526;BME280;40551;50.478;19.378;2023-05-24T08:33:52;97981.54;;;14.07;81.98
53526;BME280;40551;50.478;19.378;2023-05-24T08:36:26;97983.39;;;14.06;81.71
53526;BME280;40551;50.478;19.378;2023-05-24T08:38:58;97987.38;;;14.06;81.81
53526;BME280;40551;50.478;19.378;2023-05-24T08:41:29;97990.14;;;14.06;81.51
53526;BME280;40551;50.478;19.378;2023-05-24T08:44:07;97993.40;;;14.07;81.40
53526;BME280;40551;50.478;19.378;2023-05-24T08:46:39;97993.33;;;14.11;81.45
53526;BME280;40551;50.478;19.378;2023-05-24T08:49:11;98000.02;;;14.12;81.31
53526;BME280;40551;50.478;19.378;2023-05-24T08:51:45;98002.90;;;14.14;81.13
53526;BME280;40551;50.478;19.378;2023-05-24T08:54:17;98008.02;;;14.11;80.41
53526;BME280;40551;50.478;19.378;2023-05-24T08:56:49;98011.60;;;14.10;80.80
53526;BME280;40551;50.478;19.378;2023-05-24T08:59:22;98014.01;;;14.07;80.19
53526;BME280;40551;50.478;19.378;2023-05-24T09:01:54;98017.46;;;14.07;80.72
53526;BME280;40551;50.478;19.378;2023-05-24T09:04:28;98022.83;;;14.11;80.75
53526;BME280;40551;50.478;19.378;2023-05-24T09:07:00;98029.88;;;14.13;80.70
53526;BME280;40551;50.478;19.378;2023-05-24T09:09:34;98027.80;;;14.15;80.42
53526;BME280;40551;50.478;19.378;2023-05-24T09:12:16;98029.56;;;14.16;80.28
53526;BME280;40551;50.478;19.378;2023-05-24T09:15:08;98033.27;;;14.16;79.95
53526;BME280;40551;50.478;19.378;2023-05-24T09:17:40;98034.71;;;14.18;80.27
53526;BME280;40551;50.478;19.378;2023-05-24T09:20:12;98036.28;;;14.17;80.02
53526;BME280;40551;50.478;19.378;2023-05-24T09:22:50;98036.80;;;14.16;79.95
53526;BME280;40551;50.478;19.378;2023-05-24T09:25:28;98041.88;;;14.14;79.91
53526;BME280;40551;50.478;19.378;2023-05-24T09:28:06;98039.90;;;14.14;79.91
53526;BME280;40551;50.478;19.378;2023-05-24T09:30:39;98039.29;;;14.15;79.69
53526;BME280;40551;50.478;19.378;2023-05-24T09:33:13;98046.23;;;14.12;79.46
53526;BME280;40551;50.478;19.378;2023-05-24T09:35:45;98051.73;;;14.11;79.65
53526;BME280;40551;50.478;19.378;2023-05-24T09:38:19;98051.59;;;14.13;79.70
53526;BME280;40551;50.478;19.378;2023-05-24T09:40:59;98053.93;;;14.15;79.61
53526;BME280;40551;50.478;19.378;2023-05-24T09:43:32;98057.63;;;14.15;79.35
53526;BME280;40551;50.478;19.378;2023-05-24T09:46:05;98061.41;;;14.14;79.43
53526;BME280;40551;50.478;19.378;2023-05-24T09:48:37;98066.55;;;14.13;79.19
53526;BME280;40551;50.478;19.378;2023-05-24T09:51:09;98072.13;;;14.08;79.07
53526;BME280;40551;50.478;19.378;2023-05-24T09:53:44;98069.66;;;14.03;78.99
53526;BME280;40551;50.478;19.378;2023-05-24T09:56:17;98072.59;;;14.02;79.26
53526;BME280;40551;50.478;19.378;2023-05-24T09:58:49;98071.82;;;14.02;79.51
53526;BME280;40551;50.478;19.378;2023-05-24T10:01:22;98074.16;;;14.03;79.27
53526;BME280;40551;50.478;19.378;2023-05-24T10:03:57;98076.55;;;14.00;79.20
53526;BME280;40551;50.478;19.378;2023-05-24T10:06:34;98079.65;;;13.99;78.96
53526;BME280;40551;50.478;19.378;2023-05-24T10:09:08;98080.60;;;13.96;78.90
53526;BME280;40551;50.478;19.378;2023-05-24T10:11:41;98081.02;;;13.97;79.05
53526;BME280;40551;50.478;19.378;2023-05-24T10:14:13;98081.58;;;13.99;79.20
53526;BME280;40551;50.478;19.378;2023-05-24T10:16:47;98090.38;;;14.02;78.93
53526;BME280;40551;50.478;19.378;2023-05-24T10:19:19;98090.51;;;14.00;78.90
53526;BME280;40551;50.478;19.378;2023-05-24T10:21:52;98087.87;;;13.99;78.56
53526;BME280;40551;50.478;19.378;2023-05-24T10:24:28;98086.09;;;13.95;78.50
53526;BME280;40551;50.478;19.378;2023-05-24T10:27:06;98086.25;;;13.95;78.62
53526;BME280;40551;50.478;19.378;2023-05-24T10:29:50;98089.38;;;13.94;78.61
53526;BME280;40551;50.478;19.378;2023-05-24T10:32:27;98090.18;;;13.93;78.30
53526;BME280;40551;50.478;19.378;2023-05-24T10:35:01;98089.86;;;13.89;78.43
53526;BME280;40551;50.478;19.378;2023-05-24T10:37:35;98094.82;;;13.88;78.41
53526;BME280;40551;50.478;19.378;2023-05-24T10:40:16;98091.84;;;13.87;78.59
53526;BME280;40551;50.478;19.378;2023-05-24T10:42:49;98095.94;;;13.86;78.69
53526;BME280;40551;50.478;19.378;2023-05-24T10:45:33;98096.48;;;13.87;78.55
53526;BME280;40551;50.478;19.378;2023-05-24T10:51:33;98094.96;;;13.87;78.59
53526;BME280;40551;50.478;19.378;2023-05-24T10:54:40;98100.00;;;13.90;78.68
53526;BME280;40551;50.478;19.378;2023-05-24T10:57:34;98100.45;;;13.89;78.35
53526;BME280;40551;50.478;19.378;2023-05-24T11:00:35;98101.59;;;13.92;78.56
53526;BME280;40551;50.478;19.378;2023-05-24T11:03:12;98105.53;;;13.94;78.32
53526;BME280;40551;50.478;19.378;2023-05-24T11:05:54;98108.79;;;13.95;78.07
53526;BME280;40551;50.478;19.378;2023-05-24T11:08:30;98108.49;;;13.93;78.22
53526;BME280;40551;50.478;19.378;2023-05-24T11:11:05;98110.77;;;13.98;78.59
53526;BME280;40551;50.478;19.378;2023-05-24T11:13:55;98110.34;;;14.06;78.71
53526;BME280;40551;50.478;19.378;2023-05-24T11:16:37;98114.58;;;14.12;78.46
53526;BME280;40551;50.478;19.378;2023-05-24T11:19:15;98114.81;;;14.17;78.48
53526;BME280;40551;50.478;19.378;2023-05-24T11:21:48;98119.21;;;14.26;78.69
53526;BME280;40551;50.478;19.378;2023-05-24T11:24:23;98120.33;;;14.34;78.28
53526;BME280;40551;50.478;19.378;2023-05-24T11:26:57;98122.91;;;14.36;77.68
53526;BME280;40551;50.478;19.378;2023-05-24T11:29:30;98125.34;;;14.38;77.91
53526;BME280;40551;50.478;19.378;2023-05-24T11:32:05;98122.23;;;14.43;77.83
53526;BME280;40551;50.478;19.378;2023-05-24T11:34:37;98122.55;;;14.45;77.39
53526;BME280;40551;50.478;19.378;2023-05-24T11:37:10;98121.12;;;14.47;77.32
53526;BME280;40551;50.478;19.378;2023-05-24T11:39:50;98112.41;;;14.52;77.53
53526;BME280;40551;50.478;19.378;2023-05-24T11:42:26;98106.16;;;14.62;77.34
53526;BME280;40551;50.478;19.378;2023-05-24T11:44:59;98105.00;;;14.72;77.24
53526;BME280;40551;50.478;19.378;2023-05-24T11:47:36;98102.41;;;14.75;76.51
53526;BME280;40551;50.478;19.378;2023-05-24T11:50:11;98102.89;;;14.71;76.02
53526;BME280;40551;50.478;19.378;2023-05-24T11:52:46;98107.03;;;14.66;76.36
53526;BME280;40551;50.478;19.378;2023-05-24T11:55:25;98106.66;;;14.64;76.53
53526;BME280;40551;50.478;19.378;2023-05-24T11:57:58;98117.69;;;14.62;76.00
53526;BME280;40551;50.478;19.378;2023-05-24T12:00:33;98118.44;;;14.57;76.23
53526;BME280;40551;50.478;19.378;2023-05-24T12:03:06;98118.98;;;14.53;76.10
53526;BME280;40551;50.478;19.378;2023-05-24T12:05:39;98118.81;;;14.49;76.11
53526;BME280;40551;50.478;19.378;2023-05-24T12:08:13;98122.46;;;14.47;75.93
53526;BME280;40551;50.478;19.378;2023-05-24T12:10:48;98124.79;;;14.47;76.26
53526;BME280;40551;50.478;19.378;2023-05-24T12:13:22;98124.71;;;14.48;76.04
53526;BME280;40551;50.478;19.378;2023-05-24T12:15:56;98120.98;;;14.47;75.86
53526;BME280;40551;50.478;19.378;2023-05-24T12:18:29;98125.66;;;14.45;75.79
53526;BME280;40551;50.478;19.378;2023-05-24T12:21:03;98126.94;;;14.41;75.60
53526;BME280;40551;50.478;19.378;2023-05-24T12:23:37;98125.00;;;14.39;75.80
53526;BME280;40551;50.478;19.378;2023-05-24T12:26:13;98124.57;;;14.44;75.91
53526;BME280;40551;50.478;19.378;2023-05-24T12:28:53;98124.83;;;14.44;75.63
53526;BME280;40551;50.478;19.378;2023-05-24T12:31:26;98125.91;;;14.39;75.68
53526;BME280;40551;50.478;19.378;2023-05-24T12:33:59;98125.35;;;14.39;75.93
53526;BME280;40551;50.478;19.378;2023-05-24T12:36:30;98123.50;;;14.40;76.00
53526;BME280;40551;50.478;19.378;2023-05-24T12:39:18;98126.60;;;14.39;75.80
53526;BME280;40551;50.478;19.378;2023-05-24T12:41:54;98130.37;;;14.36;75.79
53526;BME280;40551;50.478;19.378;2023-05-24T12:44:29;98129.05;;;14.34;75.96
53526;BME280;40551;50.478;19.378;2023-05-24T12:47:02;98124.05;;;14.31;76.21
53526;BME280;40551;50.478;19.378;2023-05-24T12:49:34;98123.41;;;14.34;76.27
53526;BME280;40551;50.478;19.378;2023-05-24T12:52:08;98117.78;;;14.38;76.04
53526;BME280;40551;50.478;19.378;2023-05-24T12:54:41;98119.54;;;14.43;76.48
53526;BME280;40551;50.478;19.378;2023-05-24T12:57:13;98121.73;;;14.52;76.27
53526;BME280;40551;50.478;19.378;2023-05-24T12:59:45;98118.90;;;14.61;76.37
53526;BME280;40551;50.478;19.378;2023-05-24T13:02:17;98121.98;;;14.68;75.88
53526;BME280;40551;50.478;19.378;2023-05-24T13:04:49;98122.86;;;14.73;75.84
53526;BME280;40551;50.478;19.378;2023-05-24T13:07:21;98124.17;;;14.79;75.42
53526;BME280;40551;50.478;19.378;2023-05-24T13:09:53;98125.98;;;14.82;74.97
53526;BME280;40551;50.478;19.378;2023-05-24T13:12:25;98125.58;;;14.86;74.72
53526;BME280;40551;50.478;19.378;2023-05-24T13:14:57;98128.04;;;14.90;74.86
53526;BME280;40551;50.478;19.378;2023-05-24T13:17:29;98128.88;;;14.97;75.00
53526;BME280;40551;50.478;19.378;2023-05-24T13:20:02;98130.18;;;15.01;74.42
53526;BME280;40551;50.478;19.378;2023-05-24T13:22:36;98131.93;;;14.99;74.35
53526;BME280;40551;50.478;19.378;2023-05-24T13:25:09;98131.89;;;14.97;74.04
53526;BME280;40551;50.478;19.378;2023-05-24T13:27:41;98128.77;;;14.89;73.83
53526;BME280;40551;50.478;19.378;2023-05-24T13:30:14;98129.61;;;14.90;74.39
53526;BME280;40551;50.478;19.378;2023-05-24T13:32:46;98128.66;;;14.94;74.53
53526;BME280;40551;50.478;19.378;2023-05-24T13:35:18;98130.02;;;14.97;74.22
53526;BME280;40551;50.478;19.378;2023-05-24T13:37:50;98131.32;;;14.99;74.02
53526;BME280;40551;50.478;19.378;2023-05-24T13:40:24;98130.41;;;15.01;74.02